Weather at Budiarto Airport

Public forecast

Using degrees Celsius for public forecast. Weather courtesy of forecast.io.

Closest aviation weather report (METAR) to Budiarto Airport

Closest report is Soekarno-Hatta International Airport, 11.3 nm (20.9 km) NNE.

2024/06/22 15:00 (retrieved 29 minutes ago)

WIII 221500Z 12005KT 7000 SCT020 29/23 Q1011 NOSIG

Closest aviation forecast (TAF) to Budiarto Airport

Closest forecast is Soekarno-Hatta International Airport, 11.3 nm (20.9 km) NNE.

2024/06/22 12:00 (retrieved 3 hours ago)

TAF WIII 221100Z 2212/2318 05010KT 8000 FEW020 BECMG 2215/2217 VRB03KT 5000 HZ BECMG 2301/2303 04010KT 9000 NSW